createdAt,value
2019-04-05T00:03:17.207Z,15.73
2019-04-05T00:06:39.544Z,14.37
2019-04-05T00:10:02.107Z,17.53
2019-04-05T00:13:24.208Z,16.67
2019-04-05T00:16:46.668Z,19.50
2019-04-05T00:20:09.409Z,17.53
2019-04-05T00:23:32.035Z,20.03
2019-04-05T00:26:54.440Z,13.93
2019-04-05T00:30:17.555Z,15.67
2019-04-05T00:33:40.217Z,19.73
2019-04-05T00:37:02.804Z,20.73
2019-04-05T00:40:25.508Z,16.93
2019-04-05T00:43:48.074Z,20.53
2019-04-05T00:47:10.603Z,16.30
2019-04-05T00:50:33.182Z,15.67
2019-04-05T00:53:55.662Z,14.30
2019-04-05T00:57:18.408Z,18.03
2019-04-05T01:00:40.835Z,17.10
2019-04-05T01:04:03.192Z,15.63
2019-04-05T01:07:25.859Z,17.47
2019-04-05T01:10:48.283Z,15.90
2019-04-05T01:14:11.430Z,16.53
2019-04-05T01:17:33.826Z,16.30
2019-04-05T01:20:59.300Z,17.60
2019-04-05T01:24:22.273Z,19.47
2019-04-05T01:27:44.975Z,15.67
2019-04-05T01:31:07.344Z,15.37
2019-04-05T01:34:29.632Z,17.90
2019-04-05T01:37:52.211Z,19.43
2019-04-05T01:41:14.501Z,18.73
2019-04-05T01:44:37.764Z,20.30
2019-04-05T01:48:00.128Z,18.17
2019-04-05T01:51:23.267Z,19.37
2019-04-05T01:54:45.386Z,17.57
2019-04-05T01:58:07.878Z,17.43
2019-04-05T02:01:30.395Z,20.20
2019-04-05T02:04:53.085Z,19.70
2019-04-05T02:08:15.679Z,17.27
2019-04-05T02:11:38.488Z,20.03
2019-04-05T02:15:01.272Z,18.60
2019-04-05T02:18:23.883Z,23.37
2019-04-05T02:21:46.406Z,22.33
2019-04-05T02:25:08.707Z,18.70
2019-04-05T02:28:31.288Z,20.67
2019-04-05T02:31:53.799Z,19.97
2019-04-05T02:35:16.382Z,20.77
2019-04-05T02:38:39.174Z,20.60
2019-04-05T02:42:02.293Z,21.73
2019-04-05T02:45:27.488Z,20.10
2019-04-05T02:48:51.042Z,22.13
2019-04-05T02:52:16.830Z,20.47
2019-04-05T02:55:41.259Z,18.60
2019-04-05T02:59:03.974Z,16.20
2019-04-05T03:02:26.842Z,18.50
2019-04-05T03:05:49.744Z,18.47
2019-04-05T03:09:12.547Z,22.03
2019-04-05T03:12:35.825Z,21.47
2019-04-05T03:16:01.902Z,19.63
2019-04-05T03:19:28.592Z,18.93
2019-04-05T03:22:50.865Z,19.73
2019-04-05T03:26:16.744Z,20.63
2019-04-05T03:29:39.511Z,22.07
2019-04-05T03:33:02.186Z,21.90
2019-04-05T03:36:25.423Z,20.17
2019-04-05T03:39:47.931Z,22.07
2019-04-05T03:43:11.437Z,22.47
2019-04-05T03:46:34.431Z,21.70
2019-04-05T03:49:56.762Z,20.90
2019-04-05T03:53:19.569Z,20.97
2019-04-05T03:56:42.837Z,19.73
2019-04-05T04:00:06.550Z,21.97
2019-04-05T04:03:29.358Z,18.60
2019-04-05T04:06:51.682Z,21.03
2019-04-05T04:10:17.298Z,23.77
2019-04-05T04:13:40.483Z,21.93
2019-04-05T04:17:12.069Z,23.57
2019-04-05T04:20:44.970Z,22.03
2019-04-05T04:24:09.562Z,24.13
2019-04-05T04:27:32.348Z,24.77
2019-04-05T04:30:55.147Z,23.63
2019-04-05T04:34:17.904Z,21.03
2019-04-05T04:37:40.798Z,19.40
2019-04-05T04:41:03.400Z,20.10
2019-04-05T04:44:26.441Z,26.00
2019-04-05T04:47:48.879Z,23.00
2019-04-05T04:51:11.742Z,20.80
2019-04-05T04:54:34.631Z,21.77
2019-04-05T04:57:57.472Z,21.53
2019-04-05T05:01:20.724Z,22.03
2019-04-05T05:04:42.979Z,19.43
2019-04-05T05:08:06.157Z,22.73
2019-04-05T05:11:28.863Z,17.37
2019-04-05T05:14:51.939Z,24.10
2019-04-05T05:18:15.130Z,23.20
2019-04-05T05:21:38.075Z,23.43
2019-04-05T05:25:01.000Z,21.70
2019-04-05T05:28:23.963Z,22.33
2019-04-05T05:31:46.812Z,22.57
2019-04-05T05:35:09.651Z,25.00
2019-04-05T05:38:32.059Z,22.63
2019-04-05T05:41:55.773Z,22.60
2019-04-05T05:45:18.391Z,23.60
2019-04-05T05:48:41.550Z,20.23
2019-04-05T05:52:03.996Z,21.93
2019-04-05T05:55:29.840Z,25.90
2019-04-05T05:58:50.844Z,23.80
2019-04-05T06:02:12.967Z,23.60
2019-04-05T06:05:35.577Z,29.00
2019-04-05T06:08:57.579Z,22.77
2019-04-05T06:12:20.218Z,24.07
2019-04-05T06:15:42.294Z,29.97
2019-04-05T06:19:04.859Z,26.70
2019-04-05T06:22:27.333Z,37.30
2019-04-05T06:25:49.732Z,35.70
2019-04-05T06:29:12.179Z,39.50
2019-04-05T06:32:34.629Z,47.03
2019-04-05T06:35:57.042Z,45.80
2019-04-05T06:39:20.804Z,52.60
2019-04-05T06:42:43.377Z,54.17
2019-04-05T06:46:05.832Z,51.27
2019-04-05T06:49:28.366Z,53.03
2019-04-05T06:52:51.031Z,58.50
2019-04-05T06:56:13.204Z,59.43
2019-04-05T06:59:35.660Z,62.33
2019-04-05T07:06:02.005Z,68.43
2019-04-05T07:09:24.677Z,63.53
2019-04-05T07:12:47.733Z,67.83
2019-04-05T07:16:11.225Z,66.27
2019-04-05T07:19:34.245Z,78.23
2019-04-05T07:22:56.877Z,76.07
2019-04-05T07:26:20.905Z,79.37
2019-04-05T07:29:43.836Z,75.27
2019-04-05T07:33:06.463Z,73.47
2019-04-05T07:36:29.278Z,70.87
2019-04-05T07:39:52.128Z,72.90
2019-04-05T07:43:14.624Z,75.37
2019-04-05T07:46:37.068Z,73.50
2019-04-05T07:49:59.066Z,72.13
2019-04-05T07:53:21.398Z,74.27
2019-04-05T07:56:46.144Z,76.37
2019-04-05T08:00:08.428Z,74.10
2019-04-05T08:03:30.650Z,74.10
2019-04-05T08:06:53.855Z,69.93
2019-04-05T08:10:17.435Z,86.90
2019-04-05T08:13:42.597Z,73.20
2019-04-05T08:17:05.168Z,77.23
2019-04-05T08:20:27.582Z,80.77
2019-04-05T08:23:49.887Z,80.83
2019-04-05T08:27:12.210Z,79.87
2019-04-05T08:30:34.506Z,87.80
2019-04-05T08:33:56.580Z,89.43
2019-04-05T08:37:19.250Z,85.80
2019-04-05T08:40:41.451Z,87.73
2019-04-05T08:44:04.486Z,88.43
2019-04-05T08:47:27.142Z,87.00
2019-04-05T08:50:49.436Z,80.77
2019-04-05T08:54:11.515Z,84.23
2019-04-05T08:57:33.927Z,88.30
2019-04-05T09:00:56.678Z,88.23
2019-04-05T09:04:19.300Z,91.70
2019-04-05T09:07:41.500Z,86.53
2019-04-05T09:11:04.319Z,92.83
2019-04-05T09:14:26.838Z,94.47
2019-04-05T09:17:49.219Z,96.57
2019-04-05T09:21:12.152Z,94.23
2019-04-05T09:24:34.410Z,95.17
2019-04-05T09:27:57.075Z,103.20
2019-04-05T09:31:19.753Z,104.07
2019-04-05T09:34:42.584Z,106.87
2019-04-05T09:38:06.076Z,101.17
2019-04-05T09:41:28.840Z,105.83
2019-04-05T09:44:51.422Z,109.87
2019-04-05T09:48:13.735Z,105.77
2019-04-05T09:51:36.152Z,109.70
2019-04-05T09:54:58.797Z,111.53
2019-04-05T09:58:21.221Z,114.67
2019-04-05T10:01:43.396Z,122.10
2019-04-05T10:05:06.020Z,117.37
2019-04-05T10:08:28.397Z,122.77
2019-04-05T10:11:50.903Z,130.80
2019-04-05T10:15:13.579Z,126.80
2019-04-05T10:18:36.200Z,125.30
2019-04-05T10:21:58.622Z,124.87
2019-04-05T10:25:20.714Z,119.00
2019-04-05T10:28:43.275Z,129.60
2019-04-05T10:32:05.853Z,135.40
2019-04-05T10:35:28.110Z,129.23
2019-04-05T10:38:50.390Z,135.57
2019-04-05T10:42:27.243Z,134.37
2019-04-05T10:45:49.616Z,131.00
2019-04-05T10:49:14.926Z,126.47
2019-04-05T10:52:36.230Z,124.33
2019-04-05T10:55:58.756Z,119.27
2019-04-05T10:59:21.727Z,116.37
2019-04-05T11:02:44.288Z,115.43
2019-04-05T11:06:06.976Z,107.60
2019-04-05T11:09:29.500Z,98.03
2019-04-05T11:12:52.398Z,90.87
2019-04-05T11:16:15.164Z,92.33
2019-04-05T11:19:38.007Z,91.17
2019-04-05T11:23:00.120Z,81.93
2019-04-05T11:26:22.686Z,77.40
2019-04-05T11:29:45.286Z,71.70
2019-04-05T11:33:07.904Z,66.73
2019-04-05T11:36:30.269Z,65.90
2019-04-05T11:39:52.749Z,71.63
2019-04-05T11:43:16.292Z,65.57
2019-04-05T11:46:39.741Z,82.90
2019-04-05T11:50:03.684Z,75.90
2019-04-05T11:53:26.143Z,65.03
2019-04-05T11:56:48.719Z,58.13
2019-04-05T12:00:15.492Z,62.57
2019-04-05T12:03:38.305Z,71.47
2019-04-05T12:07:00.388Z,66.67
2019-04-05T12:10:23.039Z,60.10
2019-04-05T12:13:47.656Z,61.40
2019-04-05T12:17:09.820Z,61.90
2019-04-05T12:20:33.271Z,58.93
2019-04-05T12:23:56.155Z,61.73
2019-04-05T12:27:20.827Z,59.23
2019-04-05T12:30:45.916Z,56.67
2019-04-05T12:34:08.754Z,64.57
2019-04-05T12:37:31.059Z,57.83
2019-04-05T12:40:53.812Z,61.73
2019-04-05T12:44:16.781Z,59.77
2019-04-05T12:47:39.337Z,59.77
2019-04-05T12:51:02.828Z,68.73
2019-04-05T12:54:25.926Z,58.87
2019-04-05T12:57:48.592Z,61.90
2019-04-05T13:01:11.250Z,59.37
2019-04-05T13:04:33.572Z,60.73
2019-04-05T13:07:56.012Z,60.00
2019-04-05T13:11:18.436Z,63.17
2019-04-05T13:14:41.243Z,59.30
2019-04-05T13:18:03.611Z,65.30
2019-04-05T13:21:27.633Z,58.57
2019-04-05T13:24:49.974Z,58.90
2019-04-05T13:28:13.467Z,53.73
2019-04-05T13:31:36.582Z,61.53
2019-04-05T13:35:00.039Z,58.70
2019-04-05T13:38:22.135Z,57.83
2019-04-05T13:41:44.703Z,59.07
2019-04-05T13:45:08.143Z,61.87
2019-04-05T13:48:30.588Z,60.97
2019-04-05T13:51:53.195Z,59.23
2019-04-05T13:55:15.772Z,55.53
2019-04-05T13:58:38.367Z,57.97
2019-04-05T14:02:06.334Z,59.93
2019-04-05T14:05:25.156Z,59.87
2019-04-05T14:08:47.459Z,59.33
2019-04-05T14:12:10.198Z,59.80
2019-04-05T14:15:32.304Z,56.60
2019-04-05T14:18:54.842Z,61.73
2019-04-05T14:22:17.311Z,57.03
2019-04-05T14:25:39.387Z,64.87
2019-04-05T14:29:03.684Z,76.77
2019-04-05T14:32:25.903Z,60.37
2019-04-05T14:35:48.565Z,64.13
2019-04-05T14:39:11.029Z,60.47
2019-04-05T14:42:33.696Z,60.97
2019-04-05T14:45:56.158Z,61.23
2019-04-05T14:49:18.513Z,65.53
2019-04-05T14:52:40.974Z,58.13
2019-04-05T14:56:03.949Z,61.20
2019-04-05T14:59:26.496Z,59.70
2019-04-05T15:02:48.790Z,63.73
2019-04-05T15:06:11.419Z,63.00
2019-04-05T15:09:35.797Z,58.30
2019-04-05T15:13:00.243Z,59.60
2019-04-05T15:16:23.500Z,60.87
2019-04-05T15:19:46.339Z,64.67
2019-04-05T15:23:09.753Z,62.30
2019-04-05T15:26:32.408Z,61.90
2019-04-05T15:29:55.719Z,58.03
2019-04-05T15:33:19.087Z,61.57
2019-04-05T15:36:42.031Z,63.47
2019-04-05T15:40:06.418Z,60.13
2019-04-05T15:43:30.396Z,58.10
2019-04-05T15:46:52.846Z,61.57
2019-04-05T15:50:15.668Z,56.13
2019-04-05T15:53:38.171Z,54.37
2019-04-05T15:57:03.380Z,59.47
2019-04-05T16:00:41.053Z,65.90
2019-04-05T16:04:03.655Z,63.50
2019-04-05T16:07:26.398Z,63.30
2019-04-05T16:10:48.622Z,59.70
2019-04-05T16:14:11.314Z,59.57
2019-04-05T16:17:33.877Z,57.63
2019-04-05T16:20:56.480Z,57.03
2019-04-05T16:24:18.921Z,61.00
2019-04-05T16:27:41.695Z,58.07
2019-04-05T16:31:04.593Z,57.10
2019-04-05T16:34:26.618Z,55.33
2019-04-05T16:37:48.960Z,58.00
2019-04-05T16:41:11.473Z,58.53
2019-04-05T16:44:33.837Z,64.50
2019-04-05T16:47:56.147Z,60.20
2019-04-05T16:51:18.936Z,57.87
2019-04-05T16:54:41.288Z,57.47
2019-04-05T16:58:03.685Z,55.13
2019-04-05T17:01:27.554Z,64.03
2019-04-05T17:04:50.148Z,55.73
2019-04-05T17:08:12.724Z,62.77
2019-04-05T17:11:34.775Z,59.27
2019-04-05T17:14:57.430Z,59.13
2019-04-05T17:18:20.142Z,61.23
2019-04-05T17:21:42.339Z,65.10
2019-04-05T17:25:04.999Z,67.47
2019-04-05T17:28:27.524Z,65.97
2019-04-05T17:31:50.082Z,66.53
2019-04-05T17:35:12.300Z,63.53
2019-04-05T17:38:34.524Z,67.40
2019-04-05T17:41:57.070Z,66.23
2019-04-05T17:45:19.699Z,66.40
2019-04-05T17:48:42.684Z,66.37
2019-04-05T17:52:05.236Z,65.73
2019-04-05T17:55:28.018Z,63.60
2019-04-05T17:58:50.820Z,68.40
2019-04-05T18:02:13.220Z,69.00
2019-04-05T18:05:35.689Z,65.00
2019-04-05T18:08:58.085Z,67.23
2019-04-05T18:12:20.773Z,60.00
2019-04-05T18:15:52.320Z,60.10
2019-04-05T18:19:07.235Z,63.37
2019-04-05T18:22:29.600Z,63.57
2019-04-05T18:25:52.058Z,69.33
2019-04-05T18:29:14.564Z,59.30
2019-04-05T18:32:36.965Z,69.73
2019-04-05T18:35:59.672Z,68.57
2019-04-05T18:39:21.743Z,62.87
2019-04-05T18:42:43.870Z,66.17
2019-04-05T18:46:06.256Z,62.50
2019-04-05T18:49:28.937Z,66.40
2019-04-05T18:52:51.361Z,71.30
2019-04-05T18:56:13.887Z,76.87
2019-04-05T18:59:36.626Z,63.43
2019-04-05T19:02:59.135Z,64.43
2019-04-05T19:06:21.612Z,59.23
2019-04-05T19:09:44.104Z,65.50
2019-04-05T19:13:06.272Z,61.40
2019-04-05T19:16:28.729Z,62.03
2019-04-05T19:19:51.407Z,65.47
2019-04-05T19:23:13.895Z,57.40
2019-04-05T19:26:36.443Z,64.70
2019-04-05T19:29:58.759Z,63.00
2019-04-05T19:50:24.159Z,62.10
2019-04-05T19:53:46.539Z,67.63
2019-04-05T19:57:09.246Z,58.93
2019-04-05T20:00:31.563Z,59.97
2019-04-05T20:03:53.756Z,63.10
2019-04-05T20:07:16.151Z,61.40
2019-04-05T20:10:38.739Z,61.83
2019-04-05T20:14:01.035Z,60.33
2019-04-05T20:17:23.857Z,66.27
2019-04-05T20:20:46.299Z,64.00
2019-04-05T20:24:14.040Z,66.57
2019-04-05T20:27:32.511Z,63.67
2019-04-05T20:30:54.818Z,66.97
2019-04-05T20:34:17.207Z,61.23
2019-04-05T20:37:40.212Z,64.00
2019-04-05T20:41:03.050Z,63.90
2019-04-05T20:44:25.537Z,63.33
2019-04-05T20:47:48.238Z,65.23
2019-04-05T20:51:10.494Z,66.23
2019-04-05T20:54:33.041Z,58.57
2019-04-05T20:57:55.763Z,64.30
2019-04-05T21:01:18.414Z,63.20
2019-04-05T21:04:40.959Z,68.17
2019-04-05T21:08:03.011Z,64.67
2019-04-05T21:11:27.212Z,62.63
2019-04-05T21:14:49.804Z,63.37
2019-04-05T21:18:11.914Z,61.13
2019-04-05T21:21:34.070Z,61.50
2019-04-05T21:24:56.796Z,65.90
2019-04-05T21:28:19.467Z,63.90
2019-04-05T21:31:42.059Z,63.07
2019-04-05T21:35:04.576Z,64.63
2019-04-05T21:38:26.905Z,67.70
2019-04-05T21:41:49.538Z,65.23
2019-04-05T21:45:12.342Z,61.70
2019-04-05T21:48:34.745Z,62.30
2019-04-05T21:51:57.464Z,63.90
2019-04-05T21:55:20.035Z,68.00
2019-04-05T21:58:42.285Z,68.40
2019-04-05T22:02:06.931Z,66.80
2019-04-05T22:05:29.443Z,68.10
2019-04-05T22:08:52.006Z,68.63
2019-04-05T22:12:14.770Z,74.27
2019-04-05T22:15:37.479Z,70.97
2019-04-05T22:19:00.046Z,69.63
2019-04-05T22:22:22.489Z,67.63
2019-04-05T22:25:44.964Z,64.90
2019-04-05T22:29:07.066Z,68.50
2019-04-05T22:32:29.623Z,70.33
2019-04-05T22:35:51.945Z,62.57
2019-04-05T22:39:14.015Z,67.53
2019-04-05T22:42:36.674Z,67.07
2019-04-05T22:45:59.130Z,60.37
2019-04-05T22:49:21.627Z,58.27
2019-04-05T22:52:43.988Z,63.67
2019-04-05T22:56:06.362Z,64.53
2019-04-05T22:59:28.783Z,56.90
2019-04-05T23:02:51.496Z,61.50
2019-04-05T23:06:14.181Z,68.97
2019-04-05T23:09:36.425Z,60.30
2019-04-05T23:12:58.959Z,59.77
2019-04-05T23:16:21.526Z,60.63
2019-04-05T23:19:43.900Z,55.43
2019-04-05T23:23:06.146Z,62.47
2019-04-05T23:26:28.966Z,59.90
2019-04-05T23:29:51.619Z,57.73
2019-04-05T23:33:14.368Z,56.97
2019-04-05T23:36:37.076Z,56.37
2019-04-05T23:39:59.624Z,58.73
2019-04-05T23:43:22.296Z,60.53
2019-04-05T23:46:44.845Z,53.90
2019-04-05T23:50:07.905Z,57.90
2019-04-05T23:53:30.626Z,58.23
2019-04-05T23:56:52.820Z,52.80
